Time;durP1;ratioP1;P1;durP2;ratioP2;P2;SDS_P1;SDS_P2;PMS_P1;PMS_P2;Temp;Humidity;BMP_temperature;BMP_pressure;BME280_temperature;BME280_humidity;BME280_pressure;Samples;Min_cycle;Max_cycle;Signal;HPM_P1;HPM_P2
2021/01/14 00:00:36;;;;;;;7.88;1.67;;;4.30;94.40;;;;;;4982881;28;20577;-41
2021/01/14 00:03:08;;;;;;;7.57;2.13;;;4.30;94.20;;;;;;4982492;28;20030;-43
2021/01/14 00:05:34;;;;;;;4.40;1.75;;;4.30;94.20;;;;;;4984972;28;20030;-42
2021/01/14 00:07:59;;;;;;;5.70;1.27;;;4.30;94.20;;;;;;4983664;28;20033;-42
2021/01/14 00:10:25;;;;;;;5.30;1.10;;;4.30;94.20;;;;;;4984715;28;20068;-41
2021/01/14 00:12:50;;;;;;;4.30;1.10;;;4.20;94.20;;;;;;4984914;28;20101;-41
2021/01/14 00:15:17;;;;;;;4.72;1.20;;;4.20;94.20;;;;;;4981086;28;20022;-41
2021/01/14 00:17:43;;;;;;;3.65;1.23;;;4.20;94.50;;;;;;4984650;28;20033;-41
2021/01/14 00:20:11;;;;;;;5.05;1.58;;;4.20;94.30;;;;;;4984978;28;20026;-42
2021/01/14 00:22:37;;;;;;;8.60;1.23;;;4.20;94.30;;;;;;4986543;28;20085;-41
2021/01/14 00:25:07;;;;;;;7.40;1.42;;;4.10;94.10;;;;;;4988882;28;20058;-41
2021/01/14 00:27:35;;;;;;;3.25;0.93;;;4.10;94.10;;;;;;4987421;28;20213;-40
2021/01/14 00:30:03;;;;;;;5.05;1.20;;;4.10;94.20;;;;;;4988873;28;20100;-41
2021/01/14 00:32:28;;;;;;;3.72;1.25;;;4.10;94.10;;;;;;4987873;28;20072;-41
2021/01/14 00:34:54;;;;;;;2.75;1.00;;;4.00;94.10;;;;;;4988249;28;20547;-39
2021/01/14 00:40:04;;;;;;;3.70;1.20;;;4.00;94.10;;;;;;4988917;28;20441;-40
2021/01/14 00:42:29;;;;;;;7.63;1.42;;;4.00;94.10;;;;;;4987249;28;20582;-40
2021/01/14 00:44:55;;;;;;;5.18;1.20;;;4.00;94.10;;;;;;4988426;28;20111;-40
2021/01/14 00:47:21;;;;;;;2.13;1.08;;;3.90;94.10;;;;;;4987940;28;20050;-41
2021/01/14 00:49:47;;;;;;;3.97;1.10;;;3.90;93.90;;;;;;4987532;28;20030;-42
2021/01/14 00:52:12;;;;;;;6.65;1.58;;;3.90;93.90;;;;;;4987417;28;20040;-41
2021/01/14 00:54:39;;;;;;;4.22;1.27;;;3.90;93.80;;;;;;4988168;28;20031;-41
2021/01/14 00:57:08;;;;;;;3.38;1.02;;;3.80;93.80;;;;;;4987798;28;20061;-41
2021/01/14 00:59:34;;;;;;;4.47;1.17;;;3.80;93.70;;;;;;4987466;28;20137;-42
2021/01/14 01:02:00;;;;;;;6.60;1.52;;;3.80;93.80;;;;;;4988298;28;20027;-42
2021/01/14 01:04:25;;;;;;;4.32;1.10;;;3.70;93.80;;;;;;4987079;28;20022;-41
2021/01/14 01:06:54;;;;;;;3.63;0.93;;;3.70;93.80;;;;;;4988151;28;20026;-42
2021/01/14 01:09:20;;;;;;;2.22;0.80;;;3.70;93.80;;;;;;4987543;28;20393;-42
2021/01/14 01:11:46;;;;;;;6.03;0.93;;;3.70;93.80;;;;;;4987367;28;20050;-42
2021/01/14 01:14:12;;;;;;;5.35;1.05;;;3.60;93.80;;;;;;4986853;28;20048;-41
2021/01/14 01:16:38;;;;;;;3.08;1.08;;;3.60;93.80;;;;;;4987898;28;20442;-42
2021/01/14 01:19:03;;;;;;;3.13;1.10;;;3.60;93.90;;;;;;4986957;28;20146;-42
2021/01/14 01:21:29;;;;;;;4.00;0.90;;;3.50;93.90;;;;;;4986834;28;20655;-42
2021/01/14 01:23:54;;;;;;;5.45;1.23;;;3.50;93.90;;;;;;4986995;28;20385;-39
2021/01/14 01:26:20;;;;;;;2.13;0.80;;;3.50;94.00;;;;;;4986930;28;20045;-45
2021/01/14 01:28:46;;;;;;;4.38;1.00;;;3.40;94.00;;;;;;4987510;28;20034;-42
2021/01/14 01:31:13;;;;;;;3.90;0.98;;;3.40;94.00;;;;;;4986613;28;20121;-43
2021/01/14 01:33:42;;;;;;;4.60;1.30;;;3.40;94.10;;;;;;4987175;28;20547;-42
2021/01/14 01:36:15;;;;;;;1.88;0.70;;;3.30;94.20;;;;;;4984290;28;20126;-43
2021/01/14 01:38:41;;;;;;;3.55;0.98;;;3.30;94.20;;;;;;4986771;28;20034;-42
2021/01/14 01:41:06;;;;;;;4.40;1.10;;;3.20;94.20;;;;;;4986063;28;20014;-42
2021/01/14 01:43:32;;;;;;;2.55;0.90;;;3.30;94.30;;;;;;4986986;28;20106;-39
2021/01/14 01:46:00;;;;;;;6.13;1.23;;;3.20;94.30;;;;;;4986183;28;20058;-42
2021/01/14 01:48:26;;;;;;;2.20;1.02;;;3.20;94.30;;;;;;4986294;28;20088;-41
2021/01/14 01:50:56;;;;;;;3.65;1.10;;;3.20;94.30;;;;;;4987115;28;20034;-42
2021/01/14 01:53:22;;;;;;;4.55;1.75;;;3.20;94.30;;;;;;4986310;28;20137;-43
2021/01/14 01:55:49;;;;;;;3.65;1.20;;;3.20;94.20;;;;;;4986761;28;20402;-42
2021/01/14 01:58:18;;;;;;;5.22;1.42;;;3.30;94.20;;;;;;4986160;28;20442;-40
2021/01/14 02:00:44;;;;;;;4.93;1.23;;;3.30;94.20;;;;;;4986726;28;20033;-42
2021/01/14 02:03:09;;;;;;;5.40;2.08;;;3.30;94.10;;;;;;4986688;28;20129;-42
2021/01/14 02:05:35;;;;;;;4.15;1.33;;;3.30;94.00;;;;;;4986714;28;20109;-41
2021/01/14 02:08:23;;;;;;;2.72;1.10;;;3.40;93.90;;;;;;4986521;28;20065;-42
2021/01/14 02:10:55;;;;;;;5.43;1.08;;;3.40;93.90;;;;;;4986707;28;20069;-42
2021/01/14 02:13:41;;;;;;;3.83;1.17;;;3.30;93.80;;;;;;4986222;28;20085;-42
2021/01/14 02:16:08;;;;;;;4.82;1.23;;;3.30;93.50;;;;;;4986829;28;20034;-42
2021/01/14 02:18:34;;;;;;;4.90;1.13;;;3.20;93.40;;;;;;4986067;28;20042;-41
2021/01/14 02:21:03;;;;;;;4.72;1.23;;;3.20;93.50;;;;;;4986025;28;20160;-42
2021/01/14 02:24:03;;;;;;;6.57;1.20;;;3.20;93.50;;;;;;4985825;28;20097;-42
2021/01/14 02:26:30;;;;;;;5.43;0.93;;;3.20;93.40;;;;;;4963602;28;20069;-41
2021/01/14 02:28:58;;;;;;;4.90;1.00;;;3.10;93.20;;;;;;4985898;28;20061;-42
2021/01/14 02:31:30;;;;;;;7.55;1.20;;;3.10;93.30;;;;;;4986046;28;20041;-42
2021/01/14 02:33:58;;;;;;;6.43;1.35;;;3.10;93.20;;;;;;4986580;28;20125;-40
2021/01/14 02:36:25;;;;;;;8.60;1.63;;;3.10;93.20;;;;;;4985335;28;20030;-42
2021/01/14 02:38:52;;;;;;;2.13;0.70;;;3.00;93.00;;;;;;4986328;28;20173;-43
2021/01/14 02:41:18;;;;;;;3.45;0.90;;;3.00;93.10;;;;;;4984953;28;20373;-41
2021/01/14 02:43:43;;;;;;;5.22;1.13;;;3.10;93.20;;;;;;4986214;28;20034;-42
2021/01/14 02:46:10;;;;;;;3.22;1.00;;;3.10;93.10;;;;;;4985967;28;20450;-42
2021/01/14 02:48:39;;;;;;;3.22;1.13;;;3.10;93.00;;;;;;4985420;28;20396;-43
2021/01/14 02:51:26;;;;;;;2.45;1.10;;;3.10;92.90;;;;;;4986164;28;20077;-44
2021/01/14 02:53:52;;;;;;;2.33;0.70;;;3.10;92.90;;;;;;4984558;28;20030;-42
2021/01/14 02:56:20;;;;;;;7.40;1.60;;;3.10;92.90;;;;;;4985086;28;20105;-40
2021/01/14 02:58:49;;;;;;;2.90;1.08;;;3.10;92.90;;;;;;4986022;28;20052;-42
2021/01/14 03:01:14;;;;;;;3.95;1.05;;;3.10;92.90;;;;;;4985777;28;20088;-42
2021/01/14 03:03:40;;;;;;;4.35;1.70;;;3.10;92.80;;;;;;4985644;28;20030;-42
2021/01/14 03:06:05;;;;;;;3.38;0.98;;;3.10;92.80;;;;;;4985907;28;20034;-41
2021/01/14 03:08:31;;;;;;;3.47;0.70;;;3.10;92.70;;;;;;4985620;28;20058;-41
2021/01/14 03:10:59;;;;;;;3.25;1.17;;;3.10;92.70;;;;;;4985353;28;20022;-42
2021/01/14 03:13:25;;;;;;;3.70;1.10;;;3.10;92.90;;;;;;4984883;28;20050;-42
2021/01/14 03:15:50;;;;;;;4.00;0.90;;;3.00;92.60;;;;;;4986214;28;20261;-42
2021/01/14 03:18:16;;;;;;;4.80;1.45;;;3.00;92.60;;;;;;4984496;28;20041;-41
2021/01/14 03:20:41;;;;;;;2.67;1.02;;;3.00;92.60;;;;;;4985499;28;20162;-42
2021/01/14 03:23:08;;;;;;;4.60;0.95;;;3.00;92.60;;;;;;4985273;28;20034;-41
2021/01/14 03:25:34;;;;;;;2.78;1.02;;;3.00;92.50;;;;;;4984661;28;20030;-41
2021/01/14 03:27:59;;;;;;;3.75;0.70;;;3.00;92.50;;;;;;4985301;28;20032;-42
2021/01/14 03:30:25;;;;;;;1.15;0.70;;;2.90;92.50;;;;;;4984964;28;20023;-42
2021/01/14 03:32:51;;;;;;;3.80;0.73;;;2.90;92.50;;;;;;4985620;28;20050;-40
2021/01/14 03:35:16;;;;;;;2.13;0.82;;;2.80;92.50;;;;;;4984989;28;20077;-41
2021/01/14 03:37:42;;;;;;;4.10;1.20;;;2.80;92.50;;;;;;4985095;28;20391;-40
2021/01/14 03:40:12;;;;;;;6.10;1.10;;;2.80;92.50;;;;;;4985314;28;20717;-42
2021/01/14 03:42:38;;;;;;;4.32;1.00;;;2.80;92.40;;;;;;4985530;28;20022;-42
2021/01/14 03:45:06;;;;;;;4.63;1.13;;;2.80;92.40;;;;;;4984816;28;20037;-42
2021/01/14 03:47:31;;;;;;;5.72;1.35;;;2.80;92.50;;;;;;4984883;28;20026;-41
2021/01/14 03:49:57;;;;;;;6.03;1.13;;;2.70;92.40;;;;;;4985064;28;20524;-42
2021/01/14 03:52:22;;;;;;;4.43;1.08;;;2.70;92.40;;;;;;4965534;28;20034;-42
2021/01/14 03:54:48;;;;;;;3.35;1.50;;;2.70;92.40;;;;;;4978333;28;20841;-42
2021/01/14 03:57:14;;;;;;;1.48;0.73;;;2.70;92.40;;;;;;4988316;28;20030;-43
2021/01/14 03:59:42;;;;;;;3.28;1.23;;;2.70;92.40;;;;;;4988710;28;20045;-42
2021/01/14 04:02:11;;;;;;;4.43;1.00;;;2.70;92.40;;;;;;4989233;28;20081;-42
2021/01/14 04:04:41;;;;;;;3.13;0.98;;;2.70;92.50;;;;;;4989179;28;20427;-42
2021/01/14 04:07:11;;;;;;;1.83;0.73;;;2.70;92.50;;;;;;4989002;28;20041;-41
2021/01/14 04:09:38;;;;;;;6.30;1.02;;;2.60;92.50;;;;;;4988632;28;20022;-42
2021/01/14 04:12:03;;;;;;;4.10;0.80;;;2.60;92.60;;;;;;4989091;28;20078;-40
2021/01/14 04:14:32;;;;;;;2.08;0.73;;;2.60;92.70;;;;;;4987622;28;20430;-41
2021/01/14 04:16:59;;;;;;;3.45;1.00;;;2.60;92.70;;;;;;4988795;28;20018;-43
2021/01/14 04:19:24;;;;;;;2.45;0.70;;;2.60;92.70;;;;;;4988477;28;20045;-44
2021/01/14 04:21:50;;;;;;;1.73;0.90;;;2.70;92.70;;;;;;4988180;28;20562;-42
2021/01/14 04:24:16;;;;;;;4.05;1.00;;;2.70;92.70;;;;;;4988073;28;20126;-42
2021/01/14 04:26:42;;;;;;;2.63;0.98;;;2.70;92.60;;;;;;4988575;28;20018;-42
2021/01/14 04:29:08;;;;;;;4.43;1.20;;;2.70;92.60;;;;;;4988572;28;20068;-42
2021/01/14 04:31:34;;;;;;;1.90;0.93;;;2.60;92.50;;;;;;4988097;28;20121;-42
2021/01/14 04:34:00;;;;;;;5.53;1.45;;;2.60;92.50;;;;;;4988604;28;20317;-42
2021/01/14 04:36:25;;;;;;;5.20;2.08;;;2.60;92.50;;;;;;4987914;28;20564;-41
2021/01/14 04:38:58;;;;;;;4.40;1.55;;;2.60;92.40;;;;;;4988657;28;20125;-42
2021/01/14 04:41:27;;;;;;;2.72;1.25;;;2.50;92.40;;;;;;4987721;28;20026;-42
2021/01/14 04:43:55;;;;;;;1.88;0.80;;;2.50;92.40;;;;;;4988177;28;20026;-43
2021/01/14 04:46:21;;;;;;;2.22;0.90;;;2.50;92.40;;;;;;4987785;28;20023;-39
2021/01/14 04:48:48;;;;;;;4.07;1.20;;;2.40;92.50;;;;;;4988446;28;20022;-42
2021/01/14 04:51:18;;;;;;;1.10;0.90;;;2.40;92.50;;;;;;4987624;28;20030;-42
2021/01/14 04:53:48;;;;;;;4.25;0.85;;;2.40;92.60;;;;;;4988445;28;20042;-42
2021/01/14 04:56:16;;;;;;;3.78;1.00;;;2.30;92.70;;;;;;4986957;28;20053;-41
2021/01/14 04:58:46;;;;;;;3.40;0.85;;;2.30;92.70;;;;;;4988398;28;20116;-41
2021/01/14 05:01:23;;;;;;;3.88;1.10;;;2.30;92.70;;;;;;4987665;28;20026;-41
2021/01/14 05:03:51;;;;;;;3.53;0.80;;;2.30;93.00;;;;;;4987717;28;20026;-42
2021/01/14 05:06:21;;;;;;;2.38;1.15;;;2.30;92.70;;;;;;4987673;28;20025;-40
2021/01/14 05:08:49;;;;;;;3.20;1.10;;;2.30;92.70;;;;;;4987315;28;20050;-40
2021/01/14 05:11:19;;;;;;;4.93;0.98;;;2.40;92.70;;;;;;4987151;28;20110;-42
2021/01/14 05:13:45;;;;;;;4.47;1.35;;;2.40;92.70;;;;;;4988189;28;20054;-40
2021/01/14 05:16:12;;;;;;;2.50;1.00;;;2.40;92.60;;;;;;4987103;28;20068;-43
2021/01/14 05:18:37;;;;;;;4.55;0.70;;;2.40;92.60;;;;;;4987650;28;20038;-42
2021/01/14 05:21:03;;;;;;;5.82;1.20;;;2.40;92.60;;;;;;4987949;28;20081;-40
2021/01/14 05:23:31;;;;;;;2.53;1.35;;;2.50;92.60;;;;;;4986715;28;20167;-41
2021/01/14 05:25:58;;;;;;;6.30;0.85;;;2.40;92.60;;;;;;4988113;28;20023;-42
2021/01/14 05:28:27;;;;;;;3.83;0.85;;;2.50;92.60;;;;;;4987101;28;20776;-41
2021/01/14 05:30:53;;;;;;;2.63;0.90;;;2.50;92.50;;;;;;4987462;28;20030;-40
2021/01/14 05:33:21;;;;;;;1.67;0.75;;;2.50;92.50;;;;;;4986905;28;20026;-41
2021/01/14 05:35:51;;;;;;;1.98;0.70;;;2.50;92.50;;;;;;4987869;28;20082;-40
2021/01/14 05:38:26;;;;;;;4.78;1.15;;;2.50;92.50;;;;;;4986134;28;20058;-41
2021/01/14 05:43:46;;;;;;;3.72;1.00;;;2.50;92.50;;;;;;4987533;28;20121;-41
2021/01/14 05:46:33;;;;;;;6.03;1.15;;;2.50;92.50;;;;;;4967030;28;20022;-40
2021/01/14 05:49:00;;;;;;;4.45;0.95;;;2.50;92.50;;;;;;4983877;28;20042;-41
2021/01/14 05:51:33;;;;;;;4.65;1.20;;;2.50;92.50;;;;;;4986385;28;20031;-42
2021/01/14 05:54:05;;;;;;;5.45;1.10;;;2.50;92.50;;;;;;4987101;28;20125;-41
2021/01/14 05:56:49;;;;;;;4.30;0.90;;;2.50;92.50;;;;;;4967226;28;20031;-42
2021/01/14 05:59:19;;;;;;;3.75;0.93;;;2.50;92.50;;;;;;4982605;28;20078;-41
2021/01/14 06:01:55;;;;;;;3.83;1.30;;;2.50;92.50;;;;;;4967876;28;20634;-42
2021/01/14 06:04:23;;;;;;;5.18;0.98;;;2.50;92.60;;;;;;4982583;28;20022;-41
2021/01/14 06:06:50;;;;;;;3.03;1.10;;;2.50;92.60;;;;;;4986491;28;20113;-41
2021/01/14 06:09:18;;;;;;;3.90;1.20;;;2.50;92.60;;;;;;4986132;28;20018;-41
2021/01/14 06:11:45;;;;;;;4.25;1.10;;;2.50;92.60;;;;;;4987378;28;20038;-41
2021/01/14 06:14:30;;;;;;;1.13;0.60;;;2.50;92.60;;;;;;4986093;28;20096;-42
2021/01/14 06:17:04;;;;;;;4.55;0.90;;;2.50;92.60;;;;;;4986902;28;20035;-42
2021/01/14 06:19:30;;;;;;;3.45;1.23;;;2.50;92.60;;;;;;4984854;28;20041;-41
2021/01/14 06:21:57;;;;;;;3.80;0.98;;;2.50;92.60;;;;;;4987122;28;20474;-43
2021/01/14 06:24:31;;;;;;;5.20;0.80;;;2.50;92.70;;;;;;4986060;28;20358;-41
2021/01/14 06:26:58;;;;;;;3.05;1.02;;;2.50;92.70;;;;;;4986641;28;20096;-42
2021/01/14 06:29:27;;;;;;;2.20;1.10;;;2.50;92.70;;;;;;4986429;28;20711;-40
2021/01/14 06:32:11;;;;;;;2.45;0.93;;;2.40;92.70;;;;;;4986934;28;20045;-40
2021/01/14 06:34:39;;;;;;;1.73;0.90;;;2.40;92.70;;;;;;4986018;28;20033;-42
2021/01/14 06:37:12;;;;;;;1.45;0.80;;;2.40;92.80;;;;;;4987016;28;20041;-42
2021/01/14 06:39:59;;;;;;;2.70;0.70;;;2.40;92.80;;;;;;4986372;28;20046;-42
2021/01/14 06:42:28;;;;;;;3.03;0.82;;;2.40;92.80;;;;;;4985556;28;20096;-42
2021/01/14 06:44:58;;;;;;;3.58;0.90;;;2.40;92.80;;;;;;4986694;28;20100;-42
2021/01/14 06:47:38;;;;;;;1.35;0.45;;;2.40;92.90;;;;;;4985630;28;20076;-42
2021/01/14 06:50:18;;;;;;;3.40;1.17;;;2.40;92.90;;;;;;4986465;28;20862;-42
2021/01/14 06:53:12;;;;;;;3.38;1.00;;;2.40;92.90;;;;;;4986881;28;20046;-43
2021/01/14 06:55:44;;;;;;;3.72;0.90;;;2.40;92.90;;;;;;4985967;28;20034;-42
2021/01/14 06:58:14;;;;;;;3.22;0.80;;;2.40;92.90;;;;;;4985912;28;20046;-42
2021/01/14 07:00:45;;;;;;;3.08;0.90;;;2.40;92.90;;;;;;4982777;28;20163;-42
2021/01/14 07:03:14;;;;;;;1.58;0.70;;;2.40;92.90;;;;;;4976381;28;20046;-43
2021/01/14 07:05:54;;;;;;;1.98;0.80;;;2.40;92.90;;;;;;4977615;28;20138;-43
2021/01/14 07:08:35;;;;;;;4.20;1.10;;;2.40;92.90;;;;;;4985699;28;20038;-41
2021/01/14 07:11:02;;;;;;;2.72;1.00;;;2.40;92.90;;;;;;4985453;28;20036;-41
2021/01/14 07:13:33;;;;;;;2.53;1.23;;;2.40;92.90;;;;;;4985022;28;20093;-42
2021/01/14 07:16:00;;;;;;;1.67;0.90;;;2.40;92.90;;;;;;4982187;28;20030;-41
2021/01/14 07:18:28;;;;;;;2.55;1.10;;;2.40;92.90;;;;;;4979996;28;20045;-44
2021/01/14 07:20:57;;;;;;;2.45;1.00;;;2.40;92.90;;;;;;4984890;28;20018;-39
2021/01/14 07:23:25;;;;;;;3.38;1.02;;;2.40;92.90;;;;;;4985122;28;20500;-42
2021/01/14 07:25:52;;;;;;;2.00;1.15;;;2.40;92.90;;;;;;4985738;28;20106;-41
2021/01/14 07:28:17;;;;;;;2.25;0.80;;;2.40;92.90;;;;;;4985089;28;20405;-41
2021/01/14 07:30:52;;;;;;;2.28;1.17;;;2.40;92.90;;;;;;4985510;28;20093;-42
2021/01/14 07:33:26;;;;;;;2.70;1.20;;;2.40;92.90;;;;;;4985226;28;20044;-44
2021/01/14 07:35:53;;;;;;;2.30;1.13;;;2.50;92.90;;;;;;4986090;28;20030;-40
2021/01/14 07:38:19;;;;;;;3.70;1.20;;;2.50;93.00;;;;;;4985296;28;20557;-42
2021/01/14 07:40:45;;;;;;;4.03;1.40;;;2.50;93.00;;;;;;4986108;28;20073;-41
2021/01/14 07:43:13;;;;;;;2.90;1.15;;;2.40;93.00;;;;;;4984115;28;20430;-42
2021/01/14 07:45:41;;;;;;;1.80;0.98;;;2.50;93.00;;;;;;4986001;28;20026;-42
2021/01/14 07:48:23;;;;;;;6.30;1.42;;;2.40;93.00;;;;;;4985647;28;20419;-40
2021/01/14 07:50:51;;;;;;;3.20;1.13;;;2.50;93.00;;;;;;4986147;28;20038;-42
2021/01/14 07:53:17;;;;;;;2.28;1.00;;;2.40;93.00;;;;;;4985350;28;20126;-42
2021/01/14 07:55:43;;;;;;;2.25;1.70;;;2.40;93.00;;;;;;4985182;28;20039;-42
2021/01/14 07:58:21;;;;;;;3.30;1.60;;;2.40;93.00;;;;;;4985325;28;20034;-40
2021/01/14 08:01:07;;;;;;;5.95;1.40;;;2.40;93.00;;;;;;4967372;28;20054;-43
2021/01/14 08:03:37;;;;;;;4.93;1.70;;;2.40;93.00;;;;;;4983380;28;20728;-42
2021/01/14 08:06:17;;;;;;;5.80;2.17;;;2.40;93.00;;;;;;4985925;28;20038;-40
2021/01/14 08:09:00;;;;;;;2.97;1.42;;;2.40;93.00;;;;;;4985998;28;20408;-41
2021/01/14 08:11:30;;;;;;;3.78;1.60;;;2.40;93.00;;;;;;4985372;28;20195;-39
2021/01/14 08:14:21;;;;;;;5.88;1.77;;;2.40;93.00;;;;;;4984877;28;20050;-39
2021/01/14 08:16:52;;;;;;;2.85;1.40;;;2.40;93.00;;;;;;4979396;28;20069;-43
2021/01/14 08:19:32;;;;;;;2.45;1.13;;;2.40;92.90;;;;;;4984691;28;20462;-41
2021/01/14 08:21:58;;;;;;;2.70;1.27;;;2.50;93.00;;;;;;4986357;28;20116;-42
2021/01/14 08:24:50;;;;;;;4.18;1.58;;;2.50;93.00;;;;;;4985361;28;20469;-42
2021/01/14 08:27:36;;;;;;;6.63;1.52;;;2.50;93.00;;;;;;4984303;28;20026;-42
2021/01/14 08:30:13;;;;;;;4.82;1.58;;;2.50;93.00;;;;;;4984196;28;20481;-42
2021/01/14 08:32:43;;;;;;;3.92;1.50;;;2.50;92.90;;;;;;4985904;28;20057;-43
2021/01/14 08:35:16;;;;;;;3.25;1.90;;;2.50;92.90;;;;;;4985750;28;20172;-42
2021/01/14 08:37:52;;;;;;;6.72;2.03;;;2.50;92.90;;;;;;4985835;28;20080;-41
2021/01/14 08:40:23;;;;;;;4.75;2.00;;;2.60;92.90;;;;;;4981840;28;20022;-42
2021/01/14 08:43:09;;;;;;;4.82;1.77;;;2.50;92.90;;;;;;4987106;28;20038;-41
2021/01/14 08:45:55;;;;;;;6.18;2.40;;;2.50;92.80;;;;;;4989415;28;20717;-42
2021/01/14 08:48:31;;;;;;;5.45;3.15;;;2.60;92.80;;;;;;4988029;28;20030;-43
2021/01/14 08:50:56;;;;;;;6.57;2.35;;;2.60;92.80;;;;;;4988905;28;20041;-44
2021/01/14 08:53:22;;;;;;;5.05;2.30;;;2.60;92.70;;;;;;4988220;28;20038;-43
2021/01/14 08:55:53;;;;;;;5.00;1.75;;;2.50;92.70;;;;;;4988400;28;20070;-42
2021/01/14 08:58:20;;;;;;;5.05;1.77;;;2.60;92.60;;;;;;4988416;28;20031;-42
2021/01/14 09:00:48;;;;;;;3.33;1.83;;;2.60;92.60;;;;;;4988856;28;20397;-42
2021/01/14 09:03:15;;;;;;;3.95;1.65;;;2.60;92.60;;;;;;4987581;28;20409;-42
2021/01/14 09:05:44;;;;;;;5.72;1.70;;;2.60;92.60;;;;;;4988522;28;20038;-42
2021/01/14 09:08:12;;;;;;;5.53;2.88;;;2.70;92.50;;;;;;4988172;28;20026;-40
2021/01/14 09:10:48;;;;;;;5.18;1.38;;;2.70;92.50;;;;;;4988793;28;20026;-42
2021/01/14 09:13:20;;;;;;;6.97;2.70;;;2.70;92.40;;;;;;4968460;28;20501;-42
2021/01/14 09:15:46;;;;;;;5.90;1.80;;;2.70;92.40;;;;;;4984488;28;20145;-42
2021/01/14 09:18:14;;;;;;;6.55;1.85;;;2.80;92.30;;;;;;4988062;28;20607;-43
2021/01/14 09:20:40;;;;;;;4.05;1.63;;;2.70;92.20;;;;;;4986952;28;20038;-42
2021/01/14 09:23:17;;;;;;;4.70;1.77;;;2.80;92.20;;;;;;4987363;28;20065;-42
2021/01/14 09:25:44;;;;;;;2.97;1.70;;;2.80;92.20;;;;;;4969908;28;20443;-42
2021/01/14 09:28:11;;;;;;;4.28;1.90;;;2.80;92.20;;;;;;4897638;28;20031;-43
2021/01/14 09:30:36;;;;;;;5.05;1.90;;;2.80;92.10;;;;;;4986160;28;20026;-44
2021/01/14 09:33:02;;;;;;;4.60;1.98;;;2.80;92.10;;;;;;4987347;28;20478;-42
2021/01/14 09:35:28;;;;;;;6.68;2.20;;;2.80;92.10;;;;;;4987031;28;20050;-43
2021/01/14 09:37:54;;;;;;;5.18;2.00;;;2.80;92.10;;;;;;4986662;28;20130;-44
2021/01/14 09:40:22;;;;;;;5.60;1.65;;;2.80;92.00;;;;;;4986236;28;20046;-43
2021/01/14 09:42:51;;;;;;;4.70;2.22;;;2.80;92.00;;;;;;4976742;28;20366;-41
2021/01/14 09:45:21;;;;;;;9.68;2.83;;;2.80;92.00;;;;;;4986003;28;20106;-42
2021/01/14 09:47:50;;;;;;;8.02;2.40;;;2.80;91.80;;;;;;4987030;28;20041;-42
2021/01/14 09:50:17;;;;;;;4.30;2.70;;;2.80;91.80;;;;;;4986178;28;20066;-42
2021/01/14 09:52:45;;;;;;;7.32;2.83;;;2.70;91.70;;;;;;4986971;28;20365;-43
2021/01/14 09:55:16;;;;;;;5.65;2.70;;;2.70;91.70;;;;;;4986404;28;20447;-43
2021/01/14 09:57:53;;;;;;;8.13;2.45;;;2.70;91.70;;;;;;4986317;28;20030;-42
2021/01/14 10:00:25;;;;;;;3.90;2.08;;;2.70;91.70;;;;;;4986284;28;20037;-42
2021/01/14 10:02:59;;;;;;;4.55;2.25;;;2.80;91.80;;;;;;4987023;28;20015;-42
2021/01/14 10:05:26;;;;;;;3.45;2.28;;;2.80;91.80;;;;;;4986427;28;20109;-44
2021/01/14 10:07:54;;;;;;;6.22;2.63;;;2.80;92.00;;;;;;4986512;28;20049;-42
2021/01/14 10:10:20;;;;;;;7.28;2.90;;;2.80;91.80;;;;;;4985920;28;20369;-41
2021/01/14 10:12:58;;;;;;;5.57;2.50;;;2.90;91.80;;;;;;4985583;28;20111;-42
2021/01/14 10:15:23;;;;;;;4.57;2.03;;;2.90;91.70;;;;;;4986042;28;20481;-45
2021/01/14 10:17:49;;;;;;;5.55;2.60;;;2.90;91.70;;;;;;4986632;28;20039;-41
2021/01/14 10:20:15;;;;;;;9.38;3.83;;;2.80;91.70;;;;;;4985578;28;20045;-42
2021/01/14 10:22:53;;;;;;;8.85;3.50;;;2.80;91.70;;;;;;4986103;28;20084;-43
2021/01/14 10:25:20;;;;;;;7.05;3.10;;;2.80;91.60;;;;;;4985746;28;20034;-41
2021/01/14 10:28:00;;;;;;;8.88;3.28;;;2.80;91.60;;;;;;4985739;28;20036;-41
2021/01/14 10:30:26;;;;;;;8.15;3.25;;;2.70;91.70;;;;;;4985447;28;20044;-43
2021/01/14 10:33:00;;;;;;;5.45;2.67;;;2.70;91.70;;;;;;4985500;28;20405;-41
2021/01/14 10:35:28;;;;;;;5.50;2.80;;;2.70;91.70;;;;;;4985999;28;20018;-41
2021/01/14 10:38:14;;;;;;;4.25;2.22;;;2.70;91.70;;;;;;4985773;28;20018;-42
2021/01/14 10:40:41;;;;;;;5.72;2.58;;;2.70;91.70;;;;;;4985980;28;20519;-43
2021/01/14 10:43:08;;;;;;;4.97;2.50;;;2.70;91.70;;;;;;4985640;28;20569;-43
2021/01/14 10:45:36;;;;;;;5.85;2.67;;;2.70;91.80;;;;;;4985700;28;20046;-41
2021/01/14 10:48:13;;;;;;;5.72;2.90;;;2.70;91.70;;;;;;4985993;28;20555;-42
2021/01/14 10:50:48;;;;;;;8.25;3.15;;;2.70;91.70;;;;;;4986035;28;20061;-41
2021/01/14 10:53:25;;;;;;;7.78;3.10;;;2.60;91.60;;;;;;4985471;28;20098;-42
2021/01/14 10:56:11;;;;;;;7.47;2.97;;;2.60;91.60;;;;;;4985608;28;20030;-40
2021/01/14 10:58:38;;;;;;;7.90;3.55;;;2.60;91.70;;;;;;4985097;28;20169;-42
2021/01/14 11:01:20;;;;;;;7.32;2.90;;;2.60;91.70;;;;;;4984271;28;20049;-43
2021/01/14 11:03:50;;;;;;;4.55;2.58;;;2.60;91.80;;;;;;4986874;28;20026;-42
2021/01/14 11:06:36;;;;;;;5.68;2.40;;;2.60;92.10;;;;;;4987729;28;20062;-41
2021/01/14 11:09:06;;;;;;;6.20;2.70;;;2.60;91.80;;;;;;4985209;28;20127;-41
2021/01/14 11:11:33;;;;;;;5.72;2.60;;;2.60;91.80;;;;;;4982618;28;20026;-42
2021/01/14 11:13:58;;;;;;;4.43;2.50;;;2.60;91.80;;;;;;4985270;28;20058;-42
2021/01/14 11:16:28;;;;;;;8.20;3.05;;;2.60;91.80;;;;;;4985048;28;20022;-42
2021/01/14 11:18:57;;;;;;;5.68;2.53;;;2.70;91.80;;;;;;4985502;28;20096;-41
2021/01/14 11:21:30;;;;;;;5.50;2.75;;;2.60;91.80;;;;;;4985092;28;20036;-39
2021/01/14 11:23:57;;;;;;;4.00;3.13;;;2.60;91.80;;;;;;4983224;28;20057;-42
2021/01/14 11:26:23;;;;;;;5.65;3.58;;;2.70;91.80;;;;;;4985572;28;20030;-43
2021/01/14 11:28:50;;;;;;;3.20;2.00;;;2.60;91.80;;;;;;4982426;28;20041;-41
2021/01/14 11:31:21;;;;;;;8.00;2.60;;;2.60;91.90;;;;;;4975994;28;20038;-42
2021/01/14 11:33:47;;;;;;;6.70;2.75;;;2.60;91.90;;;;;;4976841;28;20121;-40
2021/01/14 11:36:15;;;;;;;4.43;2.50;;;2.60;91.90;;;;;;4975997;28;20706;-42
2021/01/14 11:38:41;;;;;;;7.55;2.45;;;2.60;91.90;;;;;;4975222;28;20045;-42
2021/01/14 11:41:07;;;;;;;6.38;2.80;;;2.60;91.90;;;;;;4981411;28;20350;-43
2021/01/14 11:43:33;;;;;;;5.55;3.13;;;2.60;91.90;;;;;;4973705;28;20506;-43
2021/01/14 11:46:00;;;;;;;6.13;3.05;;;2.60;92.00;;;;;;4979622;28;20335;-41
2021/01/14 11:48:26;;;;;;;7.32;2.95;;;2.60;92.00;;;;;;4976633;28;20038;-42
2021/01/14 11:50:51;;;;;;;6.65;2.90;;;2.60;92.00;;;;;;4977224;28;20415;-42
2021/01/14 11:53:17;;;;;;;5.43;2.60;;;2.60;92.00;;;;;;4983613;28;20120;-42
2021/01/14 11:55:42;;;;;;;2.97;2.25;;;2.70;92.00;;;;;;4985462;28;20741;-40
2021/01/14 11:58:08;;;;;;;5.15;2.55;;;2.70;92.00;;;;;;4975310;28;20046;-42
2021/01/14 12:00:34;;;;;;;5.40;2.90;;;2.70;92.00;;;;;;4978137;28;20085;-43
2021/01/14 12:03:01;;;;;;;5.53;3.00;;;2.70;92.00;;;;;;4979432;28;20105;-45
2021/01/14 12:05:27;;;;;;;4.78;2.20;;;2.70;92.10;;;;;;4984068;28;20026;-43
2021/01/14 12:07:53;;;;;;;4.57;2.85;;;2.70;92.10;;;;;;4986736;28;20023;-41
2021/01/14 12:10:18;;;;;;;5.45;2.85;;;2.70;92.10;;;;;;4984018;28;20212;-44
2021/01/14 12:12:44;;;;;;;5.75;3.17;;;2.70;92.00;;;;;;4985193;28;20088;-43
2021/01/14 12:15:10;;;;;;;6.00;3.28;;;2.70;92.10;;;;;;4984493;28;20105;-41
2021/01/14 12:17:35;;;;;;;4.55;3.10;;;2.80;92.10;;;;;;4985703;28;20045;-40
2021/01/14 12:20:01;;;;;;;5.05;3.05;;;2.80;92.10;;;;;;4988895;28;20109;-40
2021/01/14 12:22:26;;;;;;;5.47;3.20;;;2.80;92.00;;;;;;4988879;28;20479;-41
2021/01/14 12:24:52;;;;;;;6.20;2.95;;;2.90;92.00;;;;;;4989339;28;20026;-41
2021/01/14 12:27:18;;;;;;;6.13;2.70;;;2.90;92.00;;;;;;4983252;28;20073;-42
2021/01/14 12:29:44;;;;;;;4.00;2.58;;;2.90;92.00;;;;;;4980000;28;20129;-42
2021/01/14 12:32:09;;;;;;;4.53;2.78;;;3.00;92.00;;;;;;4979798;28;20101;-41
2021/01/14 12:34:35;;;;;;;5.65;2.55;;;3.00;91.90;;;;;;4977539;28;20046;-41
2021/01/14 12:37:00;;;;;;;5.78;3.20;;;3.00;91.90;;;;;;4983194;28;20023;-42
2021/01/14 12:39:26;;;;;;;8.13;3.35;;;3.10;91.90;;;;;;4985512;28;20038;-41
2021/01/14 12:41:52;;;;;;;7.25;3.00;;;3.10;91.70;;;;;;4989158;28;20022;-42
2021/01/14 12:44:18;;;;;;;6.75;3.45;;;3.10;91.60;;;;;;4988276;28;20445;-41
2021/01/14 12:46:46;;;;;;;5.35;2.72;;;3.20;91.60;;;;;;4988977;28;20023;-41
2021/01/14 12:49:13;;;;;;;5.75;2.78;;;3.30;91.60;;;;;;4988550;28;20026;-41
2021/01/14 12:51:39;;;;;;;4.75;2.83;;;3.30;91.50;;;;;;4985490;28;20334;-42
2021/01/14 12:54:06;;;;;;;6.30;2.70;;;3.40;91.50;;;;;;4980101;28;20033;-42
2021/01/14 12:56:32;;;;;;;5.18;3.03;;;3.50;91.40;;;;;;4978642;28;20053;-42
2021/01/14 12:59:00;;;;;;;5.78;3.85;;;3.50;91.20;;;;;;4981738;28;20064;-43
2021/01/14 13:01:28;;;;;;;6.40;3.50;;;3.50;91.10;;;;;;4973630;28;20031;-41
2021/01/14 13:03:55;;;;;;;6.18;3.50;;;3.50;90.80;;;;;;4986959;28;20121;-41
2021/01/14 13:06:32;;;;;;;9.27;3.95;;;3.50;90.40;;;;;;4987986;28;20381;-41
2021/01/14 13:08:59;;;;;;;6.65;3.60;;;3.50;90.10;;;;;;4988042;28;20026;-41
2021/01/14 13:11:29;;;;;;;9.25;3.53;;;3.50;90.00;;;;;;4983611;28;20219;-43
2021/01/14 13:13:56;;;;;;;4.07;2.92;;;3.40;89.40;;;;;;4987014;28;20042;-41